Kea — 9HA2207 — position and weather

sailwx.info

Track history (hours):
 
Tides and Currents Weather Stations Pressure Air Temp Water Temp Dewpoint Dewpoint Depression Visibility Wind Speed Wind Dir Waves Ship Positions

Kea

Last reported at 2017-May-14 03:22 UTC. Time now 2017-May-23 16:57 UTC.
Position N 02°01' E 102°11'.
Warning: this ship's position is 9 days out of date.

Length 225 m; draft 7.6 m.

Type: Cargo ship. MMSI: 248150000.

Date/timePositionNaut miles runAvg speedWind from/ knotsBaromVisibWave heightAir tempDewpointWater temp
2017-May-14 03:22N 02°01' E 102°11'410.9
2017-May-14 02:59N 01°58' E 102°14'510.9
2017-May-14 02:30N 01°55' E 102°18'510.7
2017-May-14 02:00N 01°53' E 102°23'510.8
2017-May-14 01:30N 01°51' E 102°28'611.0
2017-May-14 01:00N 01°49' E 102°33'611.9
2017-May-14 00:30N 01°47' E 102°39'612.4
2017-May-13 23:59N 01°44' E 102°45'4113.1
2017-May-13 20:52N 01°21' E 103°18'512.8
2017-May-13 20:30N 01°18' E 103°21'612.2
2017-May-13 20:00N 01°14' E 103°26'611.7
2017-May-13 19:30N 01°13' E 103°32'611.1
2017-May-13 19:00N 01°12' E 103°38'510.4
2017-May-13 18:30N 01°10' E 103°42'5 9.0
2017-May-13 18:00N 01°10' E 103°47'510.4
2017-May-13 17:30N 01°12' E 103°52'611.2
2017-May-13 17:00N 01°15' E 103°57'2 4.5
2017-May-13 16:30N 01°17' E 103°56'0 0.0
2017-May-13 15:59N 01°17' E 103°56'0 0.0
2017-May-13 15:23N 01°17' E 103°56'0 0.0
2017-May-13 14:59N 01°17' E 103°56'0 0.0
2017-May-13 14:29N 01°17' E 103°56'0 0.0
2017-May-13 13:20N 01°17' E 103°56'0 0.0
2017-May-13 12:56N 01°17' E 103°56'0 0.1
2017-May-13 12:29N 01°17' E 103°56'0 0.0
2017-May-13 11:59N 01°17' E 103°56'0 0.0
2017-May-13 11:29N 01°17' E 103°56'0 0.0
2017-May-13 10:59N 01°17' E 103°56'0 0.0
2017-May-13 10:29N 01°17' E 103°56'0 0.1
2017-May-13 09:59N 01°17' E 103°56'0 0.0
2017-May-13 09:29N 01°17' E 103°56'0 0.0
2017-May-13 08:59N 01°17' E 103°56'0 0.0
2017-May-13 08:29N 01°17' E 103°56'0 0.1
2017-May-13 07:59N 01°17' E 103°56'0 0.4
2017-May-13 07:29N 01°17' E 103°56'0 0.0
2017-May-13 06:56N 01°17' E 103°56'0 0.0
2017-May-13 06:29N 01°17' E 103°56'0 0.1
2017-May-13 05:53N 01°17' E 103°56'0 0.0
2017-May-13 05:17N 01°17' E 103°56'0 0.0
2017-May-13 04:59N 01°17' E 103°56'0 0.0
2017-May-13 04:29N 01°17' E 103°56'0 0.0
2017-May-13 03:54N 01°17' E 103°56'0 0.0
2017-May-13 03:29N 01°17' E 103°56'0 0.1
2017-May-13 02:59N 01°17' E 103°56'0 0.0
2017-May-13 02:26N 01°17' E 103°56'0 0.1
2017-May-13 01:59N 01°17' E 103°56'0 0.0
2017-May-13 01:29N 01°17' E 103°56'0 0.1
2017-May-13 00:47N 01°17' E 103°56'0 0.0
2017-May-13 00:29N 01°17' E 103°56'0 0.0
2017-May-12 23:59N 01°17' E 103°56'0 0.1
2017-May-12 23:29N 01°17' E 103°56'0 0.0
2017-May-12 22:59N 01°17' E 103°56'0 0.0
2017-May-12 22:23N 01°17' E 103°56'0 0.0
2017-May-12 21:59N 01°17' E 103°56'0 0.0
2017-May-12 21:29N 01°17' E 103°56'0 0.0
2017-May-12 20:59N 01°17' E 103°56'0 0.0
2017-May-12 20:29N 01°17' E 103°56'0 0.0
2017-May-12 19:59N 01°17' E 103°56'0 0.0
2017-May-12 19:29N 01°17' E 103°56'0 0.0
2017-May-12 18:59N 01°17' E 103°56'0 0.0
2017-May-12 18:30N 01°17' E 103°56'0 1.0
2017-May-12 18:00N 01°17' E 103°57'2 3.9
2017-May-12 17:30N 01°15' E 103°58'2 3.0
2017-May-12 16:56N 01°14' E 103°57'2 4.0
2017-May-12 16:30N 01°13' E 103°56'2 4.7
2017-May-12 16:00N 01°12' E 103°53'2 4.6
2017-May-12 15:30N 01°11' E 103°51'4 7.3
2017-May-12 15:00N 01°09' E 103°48'4 7.1
2017-May-12 14:30N 01°07' E 103°45'8 8.0
2017-May-12 13:30N 01°03' E 103°38'5 9.1
2017-May-12 12:58N 01°06' E 103°34'4 8.6
2017-May-12 12:30N 01°08' E 103°31'3 5.8
2017-May-12 11:57N 01°12' E 103°31'2 4.0
2017-May-12 11:30N 01°13' E 103°32'4 7.1
2017-May-12 11:00N 01°17' E 103°33'3 6.2
2017-May-12 10:30N 01°20' E 103°33'1 0.8
2017-May-12 09:54N 01°20' E 103°33'0 0.0
2017-May-12 09:27N 01°20' E 103°33'0 0.0
2017-May-12 08:57N 01°20' E 103°33'0 0.0
2017-May-12 08:30N 01°20' E 103°33'0 0.0
2017-May-12 07:57N 01°20' E 103°33'0 0.0
2017-May-12 07:30N 01°20' E 103°33'0 0.0
2017-May-12 06:48N 01°20' E 103°33'0 0.0
2017-May-12 06:21N 01°20' E 103°33'0 0.0
2017-May-12 04:12N 01°20' E 103°33'0 0.0
2017-May-12 03:42N 01°20' E 103°33'0 0.0
2017-May-12 03:30N 01°20' E 103°33'0 0.0
2017-May-12 02:48N 01°20' E 103°33'0 0.0
2017-May-12 02:27N 01°20' E 103°33'0 0.0
2017-May-12 02:00N 01°20' E 103°33'0 0.0
2017-May-12 01:30N 01°20' E 103°33'0 0.0
2017-May-12 00:54N 01°20' E 103°33'0 0.0
2017-May-12 00:30N 01°20' E 103°33'0 0.0
2017-May-11 23:57N 01°20' E 103°33'0 0.0
2017-May-11 23:30N 01°20' E 103°33'0 0.0
2017-May-11 23:00N 01°20' E 103°33'0 0.0
2017-May-11 22:30N 01°20' E 103°33'0 0.0
2017-May-11 21:57N 01°20' E 103°33'0 0.0
2017-May-11 21:27N 01°20' E 103°33'0 0.0
2017-May-11 20:57N 01°20' E 103°33'0 0.0
2017-May-11 20:30N 01°20' E 103°33'0 0.0
2017-May-11 19:57N 01°20' E 103°33'0 0.0
2017-May-11 19:30N 01°20' E 103°33'0 0.0
2017-May-11 18:57N 01°20' E 103°33'0 0.0
2017-May-11 18:30N 01°20' E 103°33'0 0.0
2017-May-11 17:57N 01°20' E 103°33'0 0.0
2017-May-11 17:27N 01°20' E 103°33'0 0.0
2017-May-11 16:57N 01°20' E 103°33'0 0.0
2017-May-11 16:27N 01°20' E 103°33'0 0.0
2017-May-11 15:48N 01°20' E 103°33'0 0.0
2017-May-11 15:24N 01°20' E 103°33'0 0.0
2017-May-11 14:48N 01°20' E 103°33'0 0.0
2017-May-11 14:21N 01°20' E 103°33'0 0.0
2017-May-11 13:27N 01°20' E 103°33'0 0.0
2017-May-11 12:54N 01°20' E 103°33'0 0.0
2017-May-11 12:30N 01°20' E 103°33'0 0.0
2017-May-11 11:54N 01°20' E 103°33'0 0.0
2017-May-11 11:15N 01°20' E 103°33'0 0.0
2017-May-11 10:54N 01°20' E 103°33'0 0.0
2017-May-11 10:30N 01°20' E 103°33'0 0.0
2017-May-11 09:51N 01°20' E 103°33'0 0.0
2017-May-11 09:30N 01°20' E 103°33'0 0.0
2017-May-11 08:57N 01°20' E 103°33'0 0.0
2017-May-11 08:30N 01°20' E 103°33'0 0.0
2017-May-11 07:54N 01°20' E 103°33'0 0.0
2017-May-11 07:30N 01°20' E 103°33'0 0.0
2017-May-11 06:36N 01°20' E 103°33'0 0.0
2017-May-11 06:27N 01°20' E 103°33'0 0.0
2017-May-11 04:09N 01°20' E 103°33'0 0.0
2017-May-11 03:42N 01°20' E 103°33'0 0.0
2017-May-11 03:15N 01°20' E 103°33'0 0.0
2017-May-11 02:54N 01°20' E 103°33'0 0.0
2017-May-11 02:30N 01°20' E 103°33'0 0.0
2017-May-11 01:57N 01°20' E 103°33'0 0.0
2017-May-11 01:30N 01°20' E 103°33'0 0.0
2017-May-11 00:57N 01°20' E 103°33'0 0.0
2017-May-11 00:30N 01°20' E 103°33'0 0.0
2017-May-10 23:45N 01°20' E 103°33'0 0.0
2017-May-10 23:18N 01°20' E 103°33'0 0.0
2017-May-10 22:12N 01°20' E 103°33'0 0.0
2017-May-10 21:48N 01°20' E 103°33'0 0.0
2017-May-10 21:24N 01°20' E 103°33'0 0.0
2017-May-10 20:39N 01°20' E 103°33'0 0.0
2017-May-10 20:27N 01°20' E 103°33'0 0.0
2017-May-10 19:57N 01°20' E 103°33'0 0.0
2017-May-10 19:30N 01°20' E 103°33'0 0.0
2017-May-10 18:57N 01°20' E 103°33'0 0.0
2017-May-10 18:12N 01°20' E 103°33'0 0.0
2017-May-10 17:51N 01°20' E 103°33'0 0.0
2017-May-10 17:24N 01°20' E 103°33'0 0.0
2017-May-10 16:51N 01°20' E 103°33'0 0.0
2017-May-10 16:30N 01°20' E 103°33'0 0.0
2017-May-10 15:57N 01°20' E 103°33'0 0.0
2017-May-10 14:42N 01°20' E 103°33'0 0.0
2017-May-10 13:36N 01°20' E 103°33'0 0.0
2017-May-10 13:27N 01°20' E 103°33'0 0.0
2017-May-09 19:24N 01°20' E 103°33'0 0.0
2017-May-08 23:12N 01°20' E 103°33'0 0.0
2017-May-08 22:48N 01°20' E 103°33'0 0.0
2017-May-08 22:27N 01°20' E 103°33'0 0.0
2017-May-08 21:48N 01°20' E 103°33'0 0.0
2017-May-08 21:30N 01°20' E 103°33'0 0.0
2017-May-08 20:39N 01°20' E 103°33'0 0.0
2017-May-08 20:30N 01°20' E 103°33'0 0.0
2017-May-08 19:57N 01°20' E 103°33'0 0.0
2017-May-08 19:27N 01°20' E 103°33'0 0.0
2017-May-08 18:54N 01°20' E 103°33'0 0.0
2017-May-08 18:30N 01°20' E 103°33'0 0.0
2017-May-08 17:54N 01°20' E 103°33'0 0.0
2017-May-08 17:15N 01°20' E 103°33'0 0.0
2017-May-08 16:39N 01°20' E 103°33'0 0.0
2017-May-08 16:27N 01°20' E 103°33'0 0.0
2017-May-08 15:48N 01°20' E 103°33'0 0.0
2017-May-08 15:30N 01°20' E 103°33'0 0.3
2017-May-08 15:01N 01°20' E 103°33'2 3.8
2017-May-08 14:31N 01°18' E 103°33'6 5.5
2017-May-08 13:30N 01°13' E 103°34'3 5.5
2017-May-08 13:00N 01°12' E 103°37'3 5.6
2017-May-08 12:31N 01°11' E 103°39'3 6.3
2017-May-08 12:00N 01°10' E 103°42'3 5.5
2017-May-08 11:30N 01°08' E 103°45'3 6.3
2017-May-08 11:01N 01°10' E 103°47'510.5
2017-May-08 10:31N 01°12' E 103°52'510.1
2017-May-08 10:00N 01°15' E 103°57'4 7.7
2017-May-08 09:30N 01°16' E 104°00'  
Track history (hours):
 
Tides and Currents Weather Stations Pressure Air Temp Water Temp Dewpoint Dewpoint Depression Visibility Wind Speed Wind Dir Waves Ship Positions

Kea

Last reported at 2017-May-14 03:22 UTC. Time now 2017-May-23 16:57 UTC.
Position N 02°01' E 102°11'.
Warning: this ship's position is 9 days out of date.

Length 225 m; draft 7.6 m.

Type: Cargo ship. MMSI: 248150000.

Date/timePositionNaut miles runAvg speedWind from/ knotsBaromVisibWave heightAir tempDewpointWater temp
2017-May-14 03:22N 02°01' E 102°11'410.9
2017-May-14 02:59N 01°58' E 102°14'510.9
2017-May-14 02:30N 01°55' E 102°18'510.7
2017-May-14 02:00N 01°53' E 102°23'510.8
2017-May-14 01:30N 01°51' E 102°28'611.0
2017-May-14 01:00N 01°49' E 102°33'611.9
2017-May-14 00:30N 01°47' E 102°39'612.4
2017-May-13 23:59N 01°44' E 102°45'4113.1
2017-May-13 20:52N 01°21' E 103°18'512.8
2017-May-13 20:30N 01°18' E 103°21'612.2
2017-May-13 20:00N 01°14' E 103°26'611.7
2017-May-13 19:30N 01°13' E 103°32'611.1
2017-May-13 19:00N 01°12' E 103°38'510.4
2017-May-13 18:30N 01°10' E 103°42'5 9.0
2017-May-13 18:00N 01°10' E 103°47'510.4
2017-May-13 17:30N 01°12' E 103°52'611.2
2017-May-13 17:00N 01°15' E 103°57'2 4.5
2017-May-13 16:30N 01°17' E 103°56'0 0.0
2017-May-13 15:59N 01°17' E 103°56'0 0.0
2017-May-13 15:23N 01°17' E 103°56'0 0.0
2017-May-13 14:59N 01°17' E 103°56'0 0.0
2017-May-13 14:29N 01°17' E 103°56'0 0.0
2017-May-13 13:20N 01°17' E 103°56'0 0.0
2017-May-13 12:56N 01°17' E 103°56'0 0.1
2017-May-13 12:29N 01°17' E 103°56'0 0.0
2017-May-13 11:59N 01°17' E 103°56'0 0.0
2017-May-13 11:29N 01°17' E 103°56'0 0.0
2017-May-13 10:59N 01°17' E 103°56'0 0.0
2017-May-13 10:29N 01°17' E 103°56'0 0.1
2017-May-13 09:59N 01°17' E 103°56'0 0.0
2017-May-13 09:29N 01°17' E 103°56'0 0.0
2017-May-13 08:59N 01°17' E 103°56'0 0.0
2017-May-13 08:29N 01°17' E 103°56'0 0.1
2017-May-13 07:59N 01°17' E 103°56'0 0.4
2017-May-13 07:29N 01°17' E 103°56'0 0.0
2017-May-13 06:56N 01°17' E 103°56'0 0.0
2017-May-13 06:29N 01°17' E 103°56'0 0.1
2017-May-13 05:53N 01°17' E 103°56'0 0.0
2017-May-13 05:17N 01°17' E 103°56'0 0.0
2017-May-13 04:59N 01°17' E 103°56'0 0.0
2017-May-13 04:29N 01°17' E 103°56'0 0.0
2017-May-13 03:54N 01°17' E 103°56'0 0.0
2017-May-13 03:29N 01°17' E 103°56'0 0.1
2017-May-13 02:59N 01°17' E 103°56'0 0.0
2017-May-13 02:26N 01°17' E 103°56'0 0.1
2017-May-13 01:59N 01°17' E 103°56'0 0.0
2017-May-13 01:29N 01°17' E 103°56'0 0.1
2017-May-13 00:47N 01°17' E 103°56'0 0.0
2017-May-13 00:29N 01°17' E 103°56'0 0.0
2017-May-12 23:59N 01°17' E 103°56'0 0.1
2017-May-12 23:29N 01°17' E 103°56'0 0.0
2017-May-12 22:59N 01°17' E 103°56'0 0.0
2017-May-12 22:23N 01°17' E 103°56'0 0.0
2017-May-12 21:59N 01°17' E 103°56'0 0.0
2017-May-12 21:29N 01°17' E 103°56'0 0.0
2017-May-12 20:59N 01°17' E 103°56'0 0.0
2017-May-12 20:29N 01°17' E 103°56'0 0.0
2017-May-12 19:59N 01°17' E 103°56'0 0.0
2017-May-12 19:29N 01°17' E 103°56'0 0.0
2017-May-12 18:59N 01°17' E 103°56'0 0.0
2017-May-12 18:30N 01°17' E 103°56'0 1.0
2017-May-12 18:00N 01°17' E 103°57'2 3.9
2017-May-12 17:30N 01°15' E 103°58'2 3.0
2017-May-12 16:56N 01°14' E 103°57'2 4.0
2017-May-12 16:30N 01°13' E 103°56'2 4.7
2017-May-12 16:00N 01°12' E 103°53'2 4.6
2017-May-12 15:30N 01°11' E 103°51'4 7.3
2017-May-12 15:00N 01°09' E 103°48'4 7.1
2017-May-12 14:30N 01°07' E 103°45'8 8.0
2017-May-12 13:30N 01°03' E 103°38'5 9.1
2017-May-12 12:58N 01°06' E 103°34'4 8.6
2017-May-12 12:30N 01°08' E 103°31'3 5.8
2017-May-12 11:57N 01°12' E 103°31'2 4.0
2017-May-12 11:30N 01°13' E 103°32'4 7.1
2017-May-12 11:00N 01°17' E 103°33'3 6.2
2017-May-12 10:30N 01°20' E 103°33'1 0.8
2017-May-12 09:54N 01°20' E 103°33'0 0.0
2017-May-12 09:27N 01°20' E 103°33'0 0.0
2017-May-12 08:57N 01°20' E 103°33'0 0.0
2017-May-12 08:30N 01°20' E 103°33'0 0.0
2017-May-12 07:57N 01°20' E 103°33'0 0.0
2017-May-12 07:30N 01°20' E 103°33'0 0.0
2017-May-12 06:48N 01°20' E 103°33'0 0.0
2017-May-12 06:21N 01°20' E 103°33'0 0.0
2017-May-12 04:12N 01°20' E 103°33'0 0.0
2017-May-12 03:42N 01°20' E 103°33'0 0.0
2017-May-12 03:30N 01°20' E 103°33'0 0.0
2017-May-12 02:48N 01°20' E 103°33'0 0.0
2017-May-12 02:27N 01°20' E 103°33'0 0.0
2017-May-12 02:00N 01°20' E 103°33'0 0.0
2017-May-12 01:30N 01°20' E 103°33'0 0.0
2017-May-12 00:54N 01°20' E 103°33'0 0.0
2017-May-12 00:30N 01°20' E 103°33'0 0.0
2017-May-11 23:57N 01°20' E 103°33'0 0.0
2017-May-11 23:30N 01°20' E 103°33'0 0.0
2017-May-11 23:00N 01°20' E 103°33'0 0.0
2017-May-11 22:30N 01°20' E 103°33'0 0.0
2017-May-11 21:57N 01°20' E 103°33'0 0.0
2017-May-11 21:27N 01°20' E 103°33'0 0.0
2017-May-11 20:57N 01°20' E 103°33'0 0.0
2017-May-11 20:30N 01°20' E 103°33'0 0.0
2017-May-11 19:57N 01°20' E 103°33'0 0.0
2017-May-11 19:30N 01°20' E 103°33'0 0.0
2017-May-11 18:57N 01°20' E 103°33'0 0.0
2017-May-11 18:30N 01°20' E 103°33'0 0.0
2017-May-11 17:57N 01°20' E 103°33'0 0.0
2017-May-11 17:27N 01°20' E 103°33'0 0.0
2017-May-11 16:57N 01°20' E 103°33'0 0.0
2017-May-11 16:27N 01°20' E 103°33'0 0.0
2017-May-11 15:48N 01°20' E 103°33'0 0.0
2017-May-11 15:24N 01°20' E 103°33'0 0.0
2017-May-11 14:48N 01°20' E 103°33'0 0.0
2017-May-11 14:21N 01°20' E 103°33'0 0.0
2017-May-11 13:27N 01°20' E 103°33'0 0.0
2017-May-11 12:54N 01°20' E 103°33'0 0.0
2017-May-11 12:30N 01°20' E 103°33'0 0.0
2017-May-11 11:54N 01°20' E 103°33'0 0.0
2017-May-11 11:15N 01°20' E 103°33'0 0.0
2017-May-11 10:54N 01°20' E 103°33'0 0.0
2017-May-11 10:30N 01°20' E 103°33'0 0.0
2017-May-11 09:51N 01°20' E 103°33'0 0.0
2017-May-11 09:30N 01°20' E 103°33'0 0.0
2017-May-11 08:57N 01°20' E 103°33'0 0.0
2017-May-11 08:30N 01°20' E 103°33'0 0.0
2017-May-11 07:54N 01°20' E 103°33'0 0.0
2017-May-11 07:30N 01°20' E 103°33'0 0.0
2017-May-11 06:36N 01°20' E 103°33'0 0.0
2017-May-11 06:27N 01°20' E 103°33'0 0.0
2017-May-11 04:09N 01°20' E 103°33'0 0.0
2017-May-11 03:42N 01°20' E 103°33'0 0.0
2017-May-11 03:15N 01°20' E 103°33'0 0.0
2017-May-11 02:54N 01°20' E 103°33'0 0.0
2017-May-11 02:30N 01°20' E 103°33'0 0.0
2017-May-11 01:57N 01°20' E 103°33'0 0.0
2017-May-11 01:30N 01°20' E 103°33'0 0.0
2017-May-11 00:57N 01°20' E 103°33'0 0.0
2017-May-11 00:30N 01°20' E 103°33'0 0.0
2017-May-10 23:45N 01°20' E 103°33'0 0.0
2017-May-10 23:18N 01°20' E 103°33'0 0.0
2017-May-10 22:12N 01°20' E 103°33'0 0.0
2017-May-10 21:48N 01°20' E 103°33'0 0.0
2017-May-10 21:24N 01°20' E 103°33'0 0.0
2017-May-10 20:39N 01°20' E 103°33'0 0.0
2017-May-10 20:27N 01°20' E 103°33'0 0.0
2017-May-10 19:57N 01°20' E 103°33'0 0.0
2017-May-10 19:30N 01°20' E 103°33'0 0.0
2017-May-10 18:57N 01°20' E 103°33'0 0.0
2017-May-10 18:12N 01°20' E 103°33'0 0.0
2017-May-10 17:51N 01°20' E 103°33'0 0.0
2017-May-10 17:24N 01°20' E 103°33'0 0.0
2017-May-10 16:51N 01°20' E 103°33'0 0.0
2017-May-10 16:30N 01°20' E 103°33'0 0.0
2017-May-10 15:57N 01°20' E 103°33'0 0.0
2017-May-10 14:42N 01°20' E 103°33'0 0.0
2017-May-10 13:36N 01°20' E 103°33'0 0.0
2017-May-10 13:27N 01°20' E 103°33'0 0.0
2017-May-09 19:24N 01°20' E 103°33'0 0.0
2017-May-08 23:12N 01°20' E 103°33'0 0.0
2017-May-08 22:48N 01°20' E 103°33'0 0.0
2017-May-08 22:27N 01°20' E 103°33'0 0.0
2017-May-08 21:48N 01°20' E 103°33'0 0.0
2017-May-08 21:30N 01°20' E 103°33'0 0.0
2017-May-08 20:39N 01°20' E 103°33'0 0.0
2017-May-08 20:30N 01°20' E 103°33'0 0.0
2017-May-08 19:57N 01°20' E 103°33'0 0.0
2017-May-08 19:27N 01°20' E 103°33'0 0.0
2017-May-08 18:54N 01°20' E 103°33'0 0.0
2017-May-08 18:30N 01°20' E 103°33'0 0.0
2017-May-08 17:54N 01°20' E 103°33'0 0.0
2017-May-08 17:15N 01°20' E 103°33'0 0.0
2017-May-08 16:39N 01°20' E 103°33'0 0.0
2017-May-08 16:27N 01°20' E 103°33'0 0.0
2017-May-08 15:48N 01°20' E 103°33'0 0.0
2017-May-08 15:30N 01°20' E 103°33'0 0.3
2017-May-08 15:01N 01°20' E 103°33'2 3.8
2017-May-08 14:31N 01°18' E 103°33'6 5.5
2017-May-08 13:30N 01°13' E 103°34'3 5.5
2017-May-08 13:00N 01°12' E 103°37'3 5.6
2017-May-08 12:31N 01°11' E 103°39'3 6.3
2017-May-08 12:00N 01°10' E 103°42'3 5.5
2017-May-08 11:30N 01°08' E 103°45'3 6.3
2017-May-08 11:01N 01°10' E 103°47'510.5
2017-May-08 10:31N 01°12' E 103°52'510.1
2017-May-08 10:00N 01°15' E 103°57'4 7.7
2017-May-08 09:30N 01°16' E 104°00'  

Dump ship's entire track history